Elkhart Lake, Wisconsin
Current Conditions -  °F | °C
As of 1:53 PM on Monday 24 Nov 2014 (Local Time) from KSBM Reporting Station
Light Snow Light Snow  
Wind Chill: 24°   Ceiling: 1000
Heat Index: 35°   Visibility: 5mi
Dew Point: 33°   Wind: 21mph
Humidity: 92%   Direction: 270°W
Pressure: 29.17"   Gusts: 28mph
Location:  43.83°N, 88.02°W
Report Text: KSBM 241953Z AUTO 27018G24KT 5SM -SN BR BKN010 OVC016 02/01 A2917 RMK AO2 RAE46SNB46 SLP883 P0006 T00170006
Loading
Personal Weather Stations






























Interactive Weather Map New forecast layout! Learn more

10-Day Weather Forecast

Advertisements
Track Severe Weather on mobile